sensor_id;sensor_type;location;lat;lon;timestamp;P1;durP1;ratioP1;P2;durP2;ratioP2
9675;SDS011;4876;42.656;23.292;2023-12-20T00:02:09;45.38;;;21.08;;
9675;SDS011;4876;42.656;23.292;2023-12-20T00:04:34;39.30;;;20.48;;
9675;SDS011;4876;42.656;23.292;2023-12-20T00:07:00;39.65;;;19.40;;
9675;SDS011;4876;42.656;23.292;2023-12-20T00:09:26;44.85;;;20.55;;
9675;SDS011;4876;42.656;23.292;2023-12-20T00:11:52;36.00;;;17.70;;
9675;SDS011;4876;42.656;23.292;2023-12-20T00:14:17;40.03;;;18.42;;
9675;SDS011;4876;42.656;23.292;2023-12-20T00:16:43;35.42;;;18.30;;
9675;SDS011;4876;42.656;23.292;2023-12-20T00:19:08;37.45;;;18.25;;
9675;SDS011;4876;42.656;23.292;2023-12-20T00:21:35;46.58;;;19.85;;
9675;SDS011;4876;42.656;23.292;2023-12-20T00:24:00;41.35;;;18.77;;
9675;SDS011;4876;42.656;23.292;2023-12-20T00:26:26;41.83;;;20.15;;
9675;SDS011;4876;42.656;23.292;2023-12-20T00:28:53;36.95;;;18.80;;
9675;SDS011;4876;42.656;23.292;2023-12-20T00:31:18;41.17;;;19.70;;
9675;SDS011;4876;42.656;23.292;2023-12-20T00:33:44;35.08;;;17.73;;
9675;SDS011;4876;42.656;23.292;2023-12-20T00:36:11;39.78;;;18.80;;
9675;SDS011;4876;42.656;23.292;2023-12-20T00:38:36;34.50;;;17.20;;
9675;SDS011;4876;42.656;23.292;2023-12-20T00:41:02;35.05;;;15.70;;
9675;SDS011;4876;42.656;23.292;2023-12-20T00:43:28;26.73;;;14.27;;
9675;SDS011;4876;42.656;23.292;2023-12-20T00:45:53;31.48;;;17.27;;
9675;SDS011;4876;42.656;23.292;2023-12-20T00:48:20;33.03;;;15.63;;
9675;SDS011;4876;42.656;23.292;2023-12-20T00:50:46;33.42;;;14.63;;
9675;SDS011;4876;42.656;23.292;2023-12-20T00:53:11;31.42;;;14.18;;
9675;SDS011;4876;42.656;23.292;2023-12-20T00:55:37;27.20;;;12.48;;
9675;SDS011;4876;42.656;23.292;2023-12-20T00:58:02;32.05;;;13.57;;
9675;SDS011;4876;42.656;23.292;2023-12-20T01:00:28;28.38;;;12.10;;
9675;SDS011;4876;42.656;23.292;2023-12-20T01:02:54;27.52;;;12.60;;
9675;SDS011;4876;42.656;23.292;2023-12-20T01:05:19;27.58;;;13.73;;
9675;SDS011;4876;42.656;23.292;2023-12-20T01:07:48;28.77;;;13.75;;
9675;SDS011;4876;42.656;23.292;2023-12-20T01:10:13;26.55;;;14.43;;
9675;SDS011;4876;42.656;23.292;2023-12-20T01:12:39;25.77;;;13.57;;
9675;SDS011;4876;42.656;23.292;2023-12-20T01:15:05;24.58;;;13.48;;
9675;SDS011;4876;42.656;23.292;2023-12-20T01:17:30;23.40;;;12.32;;
9675;SDS011;4876;42.656;23.292;2023-12-20T01:19:56;27.63;;;12.60;;
9675;SDS011;4876;42.656;23.292;2023-12-20T01:22:21;22.27;;;11.68;;
9675;SDS011;4876;42.656;23.292;2023-12-20T01:24:47;26.48;;;11.85;;
9675;SDS011;4876;42.656;23.292;2023-12-20T01:27:12;28.42;;;13.40;;
9675;SDS011;4876;42.656;23.292;2023-12-20T01:29:38;22.67;;;10.13;;
9675;SDS011;4876;42.656;23.292;2023-12-20T01:32:04;24.60;;;10.35;;
9675;SDS011;4876;42.656;23.292;2023-12-20T01:34:29;19.83;;;10.27;;
9675;SDS011;4876;42.656;23.292;2023-12-20T01:36:55;17.40;;;9.27;;
9675;SDS011;4876;42.656;23.292;2023-12-20T01:39:21;23.27;;;10.23;;
9675;SDS011;4876;42.656;23.292;2023-12-20T01:41:46;26.33;;;11.48;;
9675;SDS011;4876;42.656;23.292;2023-12-20T01:44:12;24.45;;;11.60;;
9675;SDS011;4876;42.656;23.292;2023-12-20T01:46:37;33.28;;;12.48;;
9675;SDS011;4876;42.656;23.292;2023-12-20T01:49:03;22.48;;;9.43;;
9675;SDS011;4876;42.656;23.292;2023-12-20T01:51:29;20.10;;;8.98;;
9675;SDS011;4876;42.656;23.292;2023-12-20T01:53:55;16.02;;;7.72;;
9675;SDS011;4876;42.656;23.292;2023-12-20T01:56:23;19.48;;;8.25;;
9675;SDS011;4876;42.656;23.292;2023-12-20T01:58:49;18.58;;;7.75;;
9675;SDS011;4876;42.656;23.292;2023-12-20T02:01:14;18.70;;;8.73;;
9675;SDS011;4876;42.656;23.292;2023-12-20T02:03:41;19.25;;;9.25;;
9675;SDS011;4876;42.656;23.292;2023-12-20T02:06:08;20.17;;;8.68;;
9675;SDS011;4876;42.656;23.292;2023-12-20T02:08:34;20.30;;;9.82;;
9675;SDS011;4876;42.656;23.292;2023-12-20T02:11:01;24.90;;;11.98;;
9675;SDS011;4876;42.656;23.292;2023-12-20T02:13:30;24.77;;;13.27;;
9675;SDS011;4876;42.656;23.292;2023-12-20T02:15:56;29.90;;;13.73;;
9675;SDS011;4876;42.656;23.292;2023-12-20T02:18:22;22.63;;;11.00;;
9675;SDS011;4876;42.656;23.292;2023-12-20T02:20:47;25.08;;;10.93;;
9675;SDS011;4876;42.656;23.292;2023-12-20T02:23:13;24.17;;;11.45;;
9675;SDS011;4876;42.656;23.292;2023-12-20T02:25:38;25.48;;;13.85;;
9675;SDS011;4876;42.656;23.292;2023-12-20T02:28:04;26.33;;;12.45;;
9675;SDS011;4876;42.656;23.292;2023-12-20T02:30:31;32.85;;;15.43;;
9675;SDS011;4876;42.656;23.292;2023-12-20T02:32:57;39.53;;;18.20;;
9675;SDS011;4876;42.656;23.292;2023-12-20T02:35:25;41.50;;;19.13;;
9675;SDS011;4876;42.656;23.292;2023-12-20T02:37:50;36.28;;;15.75;;
9675;SDS011;4876;42.656;23.292;2023-12-20T02:40:16;36.28;;;16.90;;
9675;SDS011;4876;42.656;23.292;2023-12-20T02:42:41;36.47;;;17.63;;
9675;SDS011;4876;42.656;23.292;2023-12-20T02:45:07;36.67;;;18.48;;
9675;SDS011;4876;42.656;23.292;2023-12-20T02:47:33;37.75;;;16.80;;
9675;SDS011;4876;42.656;23.292;2023-12-20T02:49:58;34.00;;;17.20;;
9675;SDS011;4876;42.656;23.292;2023-12-20T02:52:24;29.10;;;15.10;;
9675;SDS011;4876;42.656;23.292;2023-12-20T02:54:50;27.27;;;13.65;;
9675;SDS011;4876;42.656;23.292;2023-12-20T02:57:15;36.63;;;15.60;;
9675;SDS011;4876;42.656;23.292;2023-12-20T02:59:41;28.83;;;14.93;;
9675;SDS011;4876;42.656;23.292;2023-12-20T03:02:06;35.08;;;15.40;;
9675;SDS011;4876;42.656;23.292;2023-12-20T03:04:32;31.52;;;14.77;;
9675;SDS011;4876;42.656;23.292;2023-12-20T03:06:57;33.97;;;14.77;;
9675;SDS011;4876;42.656;23.292;2023-12-20T03:09:23;27.63;;;14.82;;
9675;SDS011;4876;42.656;23.292;2023-12-20T03:11:48;33.97;;;15.63;;
9675;SDS011;4876;42.656;23.292;2023-12-20T03:14:14;34.58;;;15.52;;
9675;SDS011;4876;42.656;23.292;2023-12-20T03:16:39;33.15;;;14.27;;
9675;SDS011;4876;42.656;23.292;2023-12-20T03:19:05;28.73;;;14.90;;
9675;SDS011;4876;42.656;23.292;2023-12-20T03:21:30;30.65;;;14.27;;
9675;SDS011;4876;42.656;23.292;2023-12-20T03:23:56;29.92;;;14.23;;
9675;SDS011;4876;42.656;23.292;2023-12-20T03:26:21;28.48;;;14.45;;
9675;SDS011;4876;42.656;23.292;2023-12-20T03:28:48;37.35;;;17.48;;
9675;SDS011;4876;42.656;23.292;2023-12-20T03:31:14;31.23;;;15.02;;
9675;SDS011;4876;42.656;23.292;2023-12-20T03:33:39;34.33;;;15.45;;
9675;SDS011;4876;42.656;23.292;2023-12-20T03:36:05;31.52;;;13.30;;
9675;SDS011;4876;42.656;23.292;2023-12-20T03:38:31;30.23;;;14.00;;
9675;SDS011;4876;42.656;23.292;2023-12-20T03:40:56;32.45;;;15.07;;
9675;SDS011;4876;42.656;23.292;2023-12-20T03:43:22;34.63;;;17.45;;
9675;SDS011;4876;42.656;23.292;2023-12-20T03:45:47;38.03;;;16.67;;
9675;SDS011;4876;42.656;23.292;2023-12-20T03:48:13;36.88;;;18.27;;
9675;SDS011;4876;42.656;23.292;2023-12-20T03:50:38;29.30;;;14.55;;
9675;SDS011;4876;42.656;23.292;2023-12-20T03:53:04;27.10;;;12.32;;
9675;SDS011;4876;42.656;23.292;2023-12-20T03:55:29;25.35;;;12.13;;
9675;SDS011;4876;42.656;23.292;2023-12-20T03:57:55;24.20;;;12.35;;
9675;SDS011;4876;42.656;23.292;2023-12-20T04:00:20;29.55;;;13.38;;
9675;SDS011;4876;42.656;23.292;2023-12-20T04:02:46;31.27;;;13.32;;
9675;SDS011;4876;42.656;23.292;2023-12-20T04:05:11;30.38;;;15.57;;
9675;SDS011;4876;42.656;23.292;2023-12-20T04:07:37;37.63;;;16.13;;
9675;SDS011;4876;42.656;23.292;2023-12-20T04:10:03;30.02;;;15.23;;
9675;SDS011;4876;42.656;23.292;2023-12-20T04:12:29;27.48;;;12.40;;
9675;SDS011;4876;42.656;23.292;2023-12-20T04:14:56;45.00;;;22.50;;
9675;SDS011;4876;42.656;23.292;2023-12-20T04:17:21;55.30;;;24.27;;
9675;SDS011;4876;42.656;23.292;2023-12-20T04:19:50;60.30;;;25.23;;
9675;SDS011;4876;42.656;23.292;2023-12-20T04:22:17;49.58;;;23.30;;
9675;SDS011;4876;42.656;23.292;2023-12-20T04:24:43;58.42;;;26.85;;
9675;SDS011;4876;42.656;23.292;2023-12-20T04:27:09;64.85;;;28.98;;
9675;SDS011;4876;42.656;23.292;2023-12-20T04:29:35;68.97;;;32.28;;
9675;SDS011;4876;42.656;23.292;2023-12-20T04:32:01;60.33;;;29.20;;
9675;SDS011;4876;42.656;23.292;2023-12-20T04:34:26;50.55;;;25.02;;
9675;SDS011;4876;42.656;23.292;2023-12-20T04:36:52;52.45;;;24.30;;
9675;SDS011;4876;42.656;23.292;2023-12-20T04:39:18;58.28;;;28.25;;
9675;SDS011;4876;42.656;23.292;2023-12-20T04:41:44;48.60;;;22.27;;
9675;SDS011;4876;42.656;23.292;2023-12-20T04:44:09;50.50;;;23.27;;
9675;SDS011;4876;42.656;23.292;2023-12-20T04:46:35;62.75;;;25.60;;
9675;SDS011;4876;42.656;23.292;2023-12-20T04:49:00;49.55;;;22.33;;
9675;SDS011;4876;42.656;23.292;2023-12-20T04:51:26;58.03;;;26.80;;
9675;SDS011;4876;42.656;23.292;2023-12-20T04:53:52;55.05;;;24.77;;
9675;SDS011;4876;42.656;23.292;2023-12-20T04:56:17;56.97;;;24.77;;
9675;SDS011;4876;42.656;23.292;2023-12-20T04:58:43;55.60;;;26.15;;
9675;SDS011;4876;42.656;23.292;2023-12-20T05:01:09;49.53;;;23.52;;
9675;SDS011;4876;42.656;23.292;2023-12-20T05:03:34;42.13;;;20.00;;
9675;SDS011;4876;42.656;23.292;2023-12-20T05:06:00;42.80;;;19.10;;
9675;SDS011;4876;42.656;23.292;2023-12-20T05:08:26;42.28;;;19.55;;
9675;SDS011;4876;42.656;23.292;2023-12-20T05:10:53;44.65;;;20.20;;
9675;SDS011;4876;42.656;23.292;2023-12-20T05:13:19;39.00;;;19.92;;
9675;SDS011;4876;42.656;23.292;2023-12-20T05:15:45;37.70;;;18.35;;
9675;SDS011;4876;42.656;23.292;2023-12-20T05:18:10;45.40;;;21.15;;
9675;SDS011;4876;42.656;23.292;2023-12-20T05:20:36;55.70;;;23.27;;
9675;SDS011;4876;42.656;23.292;2023-12-20T05:23:02;38.00;;;18.88;;
9675;SDS011;4876;42.656;23.292;2023-12-20T05:25:27;39.80;;;20.15;;
9675;SDS011;4876;42.656;23.292;2023-12-20T05:27:53;43.28;;;20.90;;
9675;SDS011;4876;42.656;23.292;2023-12-20T05:30:18;41.60;;;18.55;;
9675;SDS011;4876;42.656;23.292;2023-12-20T05:32:44;36.08;;;16.77;;
9675;SDS011;4876;42.656;23.292;2023-12-20T05:35:10;51.90;;;22.95;;
9675;SDS011;4876;42.656;23.292;2023-12-20T05:37:35;47.13;;;22.83;;
9675;SDS011;4876;42.656;23.292;2023-12-20T05:40:01;55.13;;;24.10;;
9675;SDS011;4876;42.656;23.292;2023-12-20T05:42:26;65.35;;;29.38;;
9675;SDS011;4876;42.656;23.292;2023-12-20T05:44:52;70.20;;;32.78;;
9675;SDS011;4876;42.656;23.292;2023-12-20T05:47:17;74.43;;;35.20;;
9675;SDS011;4876;42.656;23.292;2023-12-20T05:49:43;78.18;;;35.58;;
9675;SDS011;4876;42.656;23.292;2023-12-20T05:52:09;88.05;;;39.05;;
9675;SDS011;4876;42.656;23.292;2023-12-20T05:54:34;74.60;;;34.38;;
9675;SDS011;4876;42.656;23.292;2023-12-20T05:57:00;80.13;;;34.20;;
9675;SDS011;4876;42.656;23.292;2023-12-20T05:59:26;69.47;;;30.70;;
9675;SDS011;4876;42.656;23.292;2023-12-20T06:01:51;54.78;;;24.65;;
9675;SDS011;4876;42.656;23.292;2023-12-20T06:04:17;47.63;;;22.48;;
9675;SDS011;4876;42.656;23.292;2023-12-20T06:06:42;65.25;;;25.15;;
9675;SDS011;4876;42.656;23.292;2023-12-20T06:09:09;61.95;;;27.63;;
9675;SDS011;4876;42.656;23.292;2023-12-20T06:11:34;62.40;;;27.25;;
9675;SDS011;4876;42.656;23.292;2023-12-20T06:14:00;71.07;;;28.10;;
9675;SDS011;4876;42.656;23.292;2023-12-20T06:16:25;74.95;;;29.92;;
9675;SDS011;4876;42.656;23.292;2023-12-20T06:18:51;61.17;;;32.40;;
9675;SDS011;4876;42.656;23.292;2023-12-20T06:21:16;64.80;;;28.88;;
9675;SDS011;4876;42.656;23.292;2023-12-20T06:23:42;70.60;;;30.55;;
9675;SDS011;4876;42.656;23.292;2023-12-20T06:26:07;69.32;;;29.48;;
9675;SDS011;4876;42.656;23.292;2023-12-20T06:28:33;73.40;;;32.65;;
9675;SDS011;4876;42.656;23.292;2023-12-20T06:30:58;88.35;;;35.15;;
9675;SDS011;4876;42.656;23.292;2023-12-20T06:33:25;65.03;;;29.17;;
9675;SDS011;4876;42.656;23.292;2023-12-20T06:35:51;75.80;;;30.55;;
9675;SDS011;4876;42.656;23.292;2023-12-20T06:38:17;79.57;;;33.15;;
9675;SDS011;4876;42.656;23.292;2023-12-20T06:40:43;75.20;;;33.83;;
9675;SDS011;4876;42.656;23.292;2023-12-20T06:43:09;83.30;;;33.15;;
9675;SDS011;4876;42.656;23.292;2023-12-20T06:45:35;74.28;;;33.83;;
9675;SDS011;4876;42.656;23.292;2023-12-20T06:48:00;75.28;;;35.05;;
9675;SDS011;4876;42.656;23.292;2023-12-20T06:50:26;71.28;;;31.88;;
9675;SDS011;4876;42.656;23.292;2023-12-20T06:52:52;72.78;;;30.67;;
9675;SDS011;4876;42.656;23.292;2023-12-20T06:55:18;72.50;;;30.25;;
9675;SDS011;4876;42.656;23.292;2023-12-20T06:57:43;68.10;;;29.73;;
9675;SDS011;4876;42.656;23.292;2023-12-20T07:00:10;73.30;;;35.53;;
9675;SDS011;4876;42.656;23.292;2023-12-20T07:02:37;75.55;;;34.42;;
9675;SDS011;4876;42.656;23.292;2023-12-20T07:05:02;83.97;;;36.60;;
9675;SDS011;4876;42.656;23.292;2023-12-20T07:07:29;96.55;;;37.50;;
9675;SDS011;4876;42.656;23.292;2023-12-20T07:09:55;94.95;;;39.60;;
9675;SDS011;4876;42.656;23.292;2023-12-20T07:12:20;77.60;;;31.83;;
9675;SDS011;4876;42.656;23.292;2023-12-20T07:14:46;95.18;;;37.50;;
9675;SDS011;4876;42.656;23.292;2023-12-20T07:17:12;93.72;;;32.75;;
9675;SDS011;4876;42.656;23.292;2023-12-20T07:19:41;94.90;;;38.33;;
9675;SDS011;4876;42.656;23.292;2023-12-20T07:22:07;89.15;;;35.05;;
9675;SDS011;4876;42.656;23.292;2023-12-20T07:24:33;91.97;;;35.83;;
9675;SDS011;4876;42.656;23.292;2023-12-20T07:26:59;87.78;;;35.28;;
9675;SDS011;4876;42.656;23.292;2023-12-20T07:29:25;89.78;;;33.30;;
9675;SDS011;4876;42.656;23.292;2023-12-20T07:31:50;85.68;;;37.45;;
9675;SDS011;4876;42.656;23.292;2023-12-20T07:34:17;91.50;;;35.42;;
9675;SDS011;4876;42.656;23.292;2023-12-20T07:36:43;99.38;;;35.25;;
9675;SDS011;4876;42.656;23.292;2023-12-20T07:39:08;101.72;;;35.80;;
9675;SDS011;4876;42.656;23.292;2023-12-20T07:41:34;90.15;;;34.95;;
9675;SDS011;4876;42.656;23.292;2023-12-20T07:43:59;94.40;;;38.90;;
9675;SDS011;4876;42.656;23.292;2023-12-20T07:46:25;92.53;;;33.03;;
9675;SDS011;4876;42.656;23.292;2023-12-20T07:48:50;88.18;;;33.92;;
9675;SDS011;4876;42.656;23.292;2023-12-20T07:51:16;114.18;;;38.83;;
9675;SDS011;4876;42.656;23.292;2023-12-20T07:53:41;87.88;;;34.47;;
9675;SDS011;4876;42.656;23.292;2023-12-20T07:56:16;84.55;;;36.95;;
9675;SDS011;4876;42.656;23.292;2023-12-20T07:58:43;102.35;;;38.97;;
9675;SDS011;4876;42.656;23.292;2023-12-20T08:01:10;96.10;;;36.65;;
9675;SDS011;4876;42.656;23.292;2023-12-20T08:03:37;117.05;;;43.10;;
9675;SDS011;4876;42.656;23.292;2023-12-20T08:06:03;95.82;;;35.35;;
9675;SDS011;4876;42.656;23.292;2023-12-20T08:08:29;115.88;;;42.95;;
9675;SDS011;4876;42.656;23.292;2023-12-20T08:10:54;97.57;;;38.33;;
9675;SDS011;4876;42.656;23.292;2023-12-20T08:13:20;107.18;;;40.90;;
9675;SDS011;4876;42.656;23.292;2023-12-20T08:15:50;105.18;;;40.10;;
9675;SDS011;4876;42.656;23.292;2023-12-20T08:18:15;111.10;;;40.97;;
9675;SDS011;4876;42.656;23.292;2023-12-20T08:20:41;110.95;;;39.28;;
9675;SDS011;4876;42.656;23.292;2023-12-20T08:23:06;107.70;;;39.58;;
9675;SDS011;4876;42.656;23.292;2023-12-20T08:25:32;87.47;;;36.55;;
9675;SDS011;4876;42.656;23.292;2023-12-20T08:27:57;91.47;;;39.97;;
9675;SDS011;4876;42.656;23.292;2023-12-20T08:30:23;82.00;;;38.92;;
9675;SDS011;4876;42.656;23.292;2023-12-20T08:32:48;96.20;;;39.83;;
9675;SDS011;4876;42.656;23.292;2023-12-20T08:35:14;93.70;;;38.58;;
9675;SDS011;4876;42.656;23.292;2023-12-20T08:37:39;94.65;;;41.33;;
9675;SDS011;4876;42.656;23.292;2023-12-20T08:40:05;84.50;;;37.75;;
9675;SDS011;4876;42.656;23.292;2023-12-20T08:42:31;96.10;;;39.22;;
9675;SDS011;4876;42.656;23.292;2023-12-20T08:44:57;104.07;;;43.42;;
9675;SDS011;4876;42.656;23.292;2023-12-20T08:47:23;99.30;;;41.05;;
9675;SDS011;4876;42.656;23.292;2023-12-20T08:49:50;106.15;;;43.60;;
9675;SDS011;4876;42.656;23.292;2023-12-20T08:52:15;105.60;;;43.65;;
9675;SDS011;4876;42.656;23.292;2023-12-20T08:54:41;100.68;;;41.30;;
9675;SDS011;4876;42.656;23.292;2023-12-20T08:57:06;89.32;;;39.75;;
9675;SDS011;4876;42.656;23.292;2023-12-20T08:59:33;97.07;;;42.42;;
9675;SDS011;4876;42.656;23.292;2023-12-20T09:01:59;94.35;;;40.13;;
9675;SDS011;4876;42.656;23.292;2023-12-20T09:04:24;110.30;;;40.92;;
9675;SDS011;4876;42.656;23.292;2023-12-20T09:06:50;103.03;;;43.33;;
9675;SDS011;4876;42.656;23.292;2023-12-20T09:09:16;102.72;;;43.53;;
9675;SDS011;4876;42.656;23.292;2023-12-20T09:11:41;96.28;;;42.65;;
9675;SDS011;4876;42.656;23.292;2023-12-20T09:14:07;108.95;;;44.45;;
9675;SDS011;4876;42.656;23.292;2023-12-20T09:16:33;102.45;;;42.65;;
9675;SDS011;4876;42.656;23.292;2023-12-20T09:18:58;106.13;;;45.10;;
9675;SDS011;4876;42.656;23.292;2023-12-20T09:21:24;94.72;;;42.42;;
9675;SDS011;4876;42.656;23.292;2023-12-20T09:23:50;97.45;;;43.45;;
9675;SDS011;4876;42.656;23.292;2023-12-20T09:26:15;104.90;;;43.60;;
9675;SDS011;4876;42.656;23.292;2023-12-20T09:28:41;101.22;;;43.78;;
9675;SDS011;4876;42.656;23.292;2023-12-20T09:31:06;109.90;;;45.00;;
9675;SDS011;4876;42.656;23.292;2023-12-20T09:33:32;107.93;;;47.05;;
9675;SDS011;4876;42.656;23.292;2023-12-20T09:35:58;115.00;;;46.50;;
9675;SDS011;4876;42.656;23.292;2023-12-20T09:38:24;109.05;;;48.45;;
9675;SDS011;4876;42.656;23.292;2023-12-20T09:40:49;108.25;;;47.28;;
9675;SDS011;4876;42.656;23.292;2023-12-20T09:43:15;105.03;;;47.53;;
9675;SDS011;4876;42.656;23.292;2023-12-20T09:45:45;100.97;;;43.70;;
9675;SDS011;4876;42.656;23.292;2023-12-20T09:48:12;98.50;;;45.05;;
9675;SDS011;4876;42.656;23.292;2023-12-20T09:50:40;108.78;;;47.47;;
9675;SDS011;4876;42.656;23.292;2023-12-20T09:53:07;103.38;;;45.22;;
9675;SDS011;4876;42.656;23.292;2023-12-20T09:55:35;92.70;;;42.33;;
9675;SDS011;4876;42.656;23.292;2023-12-20T09:58:01;103.90;;;43.63;;
9675;SDS011;4876;42.656;23.292;2023-12-20T10:00:27;110.25;;;45.13;;
9675;SDS011;4876;42.656;23.292;2023-12-20T10:05:27;104.38;;;45.25;;
9675;SDS011;4876;42.656;23.292;2023-12-20T10:07:53;101.22;;;45.83;;
9675;SDS011;4876;42.656;23.292;2023-12-20T10:10:19;95.93;;;43.53;;
9675;SDS011;4876;42.656;23.292;2023-12-20T10:13:04;91.68;;;43.92;;
9675;SDS011;4876;42.656;23.292;2023-12-20T10:15:37;90.60;;;42.42;;
9675;SDS011;4876;42.656;23.292;2023-12-20T10:18:03;87.03;;;41.20;;
9675;SDS011;4876;42.656;23.292;2023-12-20T10:20:30;95.47;;;41.58;;
9675;SDS011;4876;42.656;23.292;2023-12-20T10:22:56;96.43;;;46.17;;
9675;SDS011;4876;42.656;23.292;2023-12-20T10:25:25;102.22;;;47.03;;
9675;SDS011;4876;42.656;23.292;2023-12-20T10:30:37;94.97;;;46.47;;
9675;SDS011;4876;42.656;23.292;2023-12-20T10:33:03;99.70;;;46.10;;
9675;SDS011;4876;42.656;23.292;2023-12-20T10:35:31;98.75;;;46.97;;
9675;SDS011;4876;42.656;23.292;2023-12-20T10:37:57;102.68;;;48.17;;
9675;SDS011;4876;42.656;23.292;2023-12-20T10:40:27;92.15;;;46.83;;
9675;SDS011;4876;42.656;23.292;2023-12-20T10:42:54;97.95;;;44.22;;
9675;SDS011;4876;42.656;23.292;2023-12-20T10:45:21;96.45;;;43.88;;
9675;SDS011;4876;42.656;23.292;2023-12-20T10:47:49;94.72;;;45.00;;
9675;SDS011;4876;42.656;23.292;2023-12-20T10:50:15;86.47;;;40.05;;
9675;SDS011;4876;42.656;23.292;2023-12-20T10:52:43;93.40;;;44.67;;
9675;SDS011;4876;42.656;23.292;2023-12-20T10:55:10;90.30;;;41.58;;
9675;SDS011;4876;42.656;23.292;2023-12-20T10:57:36;89.53;;;43.70;;
9675;SDS011;4876;42.656;23.292;2023-12-20T11:00:02;90.72;;;44.55;;
9675;SDS011;4876;42.656;23.292;2023-12-20T11:02:32;91.00;;;44.92;;
9675;SDS011;4876;42.656;23.292;2023-12-20T11:05:15;88.22;;;43.75;;
9675;SDS011;4876;42.656;23.292;2023-12-20T11:07:52;87.50;;;42.08;;
9675;SDS011;4876;42.656;23.292;2023-12-20T11:13:40;83.53;;;40.20;;
9675;SDS011;4876;42.656;23.292;2023-12-20T11:16:13;80.47;;;39.33;;
9675;SDS011;4876;42.656;23.292;2023-12-20T11:18:39;86.93;;;42.83;;
9675;SDS011;4876;42.656;23.292;2023-12-20T11:21:06;85.10;;;40.28;;
9675;SDS011;4876;42.656;23.292;2023-12-20T11:23:32;82.85;;;41.92;;
9675;SDS011;4876;42.656;23.292;2023-12-20T11:26:00;78.00;;;39.83;;
9675;SDS011;4876;42.656;23.292;2023-12-20T11:30:56;77.88;;;38.50;;
9675;SDS011;4876;42.656;23.292;2023-12-20T11:33:45;87.05;;;45.65;;
9675;SDS011;4876;42.656;23.292;2023-12-20T11:36:18;83.85;;;39.28;;
9675;SDS011;4876;42.656;23.292;2023-12-20T11:38:53;95.05;;;41.78;;
9675;SDS011;4876;42.656;23.292;2023-12-20T11:41:22;89.25;;;41.45;;
9675;SDS011;4876;42.656;23.292;2023-12-20T11:43:49;96.90;;;43.78;;
9675;SDS011;4876;42.656;23.292;2023-12-20T11:46:18;92.95;;;45.72;;
9675;SDS011;4876;42.656;23.292;2023-12-20T11:48:45;90.43;;;40.67;;
9675;SDS011;4876;42.656;23.292;2023-12-20T11:51:14;89.60;;;39.95;;
9675;SDS011;4876;42.656;23.292;2023-12-20T11:53:40;97.22;;;43.05;;
9675;SDS011;4876;42.656;23.292;2023-12-20T11:56:07;90.22;;;39.85;;
9675;SDS011;4876;42.656;23.292;2023-12-20T11:58:34;89.20;;;39.58;;
9675;SDS011;4876;42.656;23.292;2023-12-20T12:01:00;80.28;;;36.55;;
9675;SDS011;4876;42.656;23.292;2023-12-20T12:03:27;96.75;;;40.38;;
9675;SDS011;4876;42.656;23.292;2023-12-20T12:05:53;86.60;;;39.65;;
9675;SDS011;4876;42.656;23.292;2023-12-20T12:08:18;83.82;;;36.63;;
9675;SDS011;4876;42.656;23.292;2023-12-20T12:10:44;95.57;;;38.85;;
9675;SDS011;4876;42.656;23.292;2023-12-20T12:13:10;83.38;;;35.80;;
9675;SDS011;4876;42.656;23.292;2023-12-20T12:15:36;83.32;;;36.67;;
9675;SDS011;4876;42.656;23.292;2023-12-20T12:18:03;86.15;;;35.50;;
9675;SDS011;4876;42.656;23.292;2023-12-20T12:20:30;83.72;;;36.20;;
9675;SDS011;4876;42.656;23.292;2023-12-20T12:23:02;77.72;;;36.08;;
9675;SDS011;4876;42.656;23.292;2023-12-20T12:25:33;81.78;;;37.25;;
9675;SDS011;4876;42.656;23.292;2023-12-20T12:28:01;87.70;;;36.58;;
9675;SDS011;4876;42.656;23.292;2023-12-20T12:30:27;76.25;;;32.25;;
9675;SDS011;4876;42.656;23.292;2023-12-20T12:32:53;67.03;;;32.72;;
9675;SDS011;4876;42.656;23.292;2023-12-20T12:35:21;83.20;;;38.30;;
9675;SDS011;4876;42.656;23.292;2023-12-20T12:37:47;87.30;;;35.03;;
9675;SDS011;4876;42.656;23.292;2023-12-20T12:40:13;78.97;;;33.08;;
9675;SDS011;4876;42.656;23.292;2023-12-20T12:42:40;78.30;;;34.53;;
9675;SDS011;4876;42.656;23.292;2023-12-20T12:45:08;83.03;;;37.83;;
9675;SDS011;4876;42.656;23.292;2023-12-20T12:47:34;87.63;;;35.25;;
9675;SDS011;4876;42.656;23.292;2023-12-20T12:50:00;83.75;;;36.47;;
9675;SDS011;4876;42.656;23.292;2023-12-20T12:52:26;82.53;;;35.95;;
9675;SDS011;4876;42.656;23.292;2023-12-20T12:54:52;80.93;;;34.90;;
9675;SDS011;4876;42.656;23.292;2023-12-20T12:57:18;81.82;;;36.97;;
9675;SDS011;4876;42.656;23.292;2023-12-20T12:59:44;78.50;;;35.65;;
9675;SDS011;4876;42.656;23.292;2023-12-20T13:02:11;80.13;;;35.20;;
9675;SDS011;4876;42.656;23.292;2023-12-20T13:04:39;76.18;;;33.40;;
9675;SDS011;4876;42.656;23.292;2023-12-20T13:07:05;77.97;;;34.42;;
9675;SDS011;4876;42.656;23.292;2023-12-20T13:09:31;85.70;;;37.25;;
9675;SDS011;4876;42.656;23.292;2023-12-20T13:11:56;82.85;;;36.25;;
9675;SDS011;4876;42.656;23.292;2023-12-20T13:14:22;78.63;;;33.33;;
9675;SDS011;4876;42.656;23.292;2023-12-20T13:16:47;87.10;;;35.35;;
9675;SDS011;4876;42.656;23.292;2023-12-20T13:19:13;86.22;;;36.20;;
9675;SDS011;4876;42.656;23.292;2023-12-20T13:21:39;79.30;;;35.67;;
9675;SDS011;4876;42.656;23.292;2023-12-20T13:24:05;91.47;;;37.33;;
9675;SDS011;4876;42.656;23.292;2023-12-20T13:26:30;81.22;;;35.70;;
9675;SDS011;4876;42.656;23.292;2023-12-20T13:28:56;87.35;;;37.08;;
9675;SDS011;4876;42.656;23.292;2023-12-20T13:31:21;80.40;;;37.38;;
9675;SDS011;4876;42.656;23.292;2023-12-20T13:33:47;92.95;;;37.58;;
9675;SDS011;4876;42.656;23.292;2023-12-20T13:36:12;80.93;;;36.53;;
9675;SDS011;4876;42.656;23.292;2023-12-20T13:38:38;83.55;;;34.17;;
9675;SDS011;4876;42.656;23.292;2023-12-20T13:41:04;82.65;;;34.80;;
9675;SDS011;4876;42.656;23.292;2023-12-20T13:43:30;83.90;;;34.20;;
9675;SDS011;4876;42.656;23.292;2023-12-20T13:45:58;90.07;;;37.35;;
9675;SDS011;4876;42.656;23.292;2023-12-20T13:48:24;82.65;;;35.42;;
9675;SDS011;4876;42.656;23.292;2023-12-20T13:50:49;86.57;;;36.67;;
9675;SDS011;4876;42.656;23.292;2023-12-20T13:53:15;85.25;;;37.28;;
9675;SDS011;4876;42.656;23.292;2023-12-20T13:55:41;87.40;;;37.78;;
9675;SDS011;4876;42.656;23.292;2023-12-20T13:58:06;91.60;;;39.47;;
9675;SDS011;4876;42.656;23.292;2023-12-20T14:00:32;96.00;;;38.47;;
9675;SDS011;4876;42.656;23.292;2023-12-20T14:02:57;91.70;;;38.35;;
9675;SDS011;4876;42.656;23.292;2023-12-20T14:05:23;98.35;;;36.00;;
9675;SDS011;4876;42.656;23.292;2023-12-20T14:07:51;99.03;;;39.38;;
9675;SDS011;4876;42.656;23.292;2023-12-20T14:10:16;98.55;;;42.63;;
9675;SDS011;4876;42.656;23.292;2023-12-20T14:12:42;92.28;;;39.40;;
9675;SDS011;4876;42.656;23.292;2023-12-20T14:15:09;91.45;;;38.55;;
9675;SDS011;4876;42.656;23.292;2023-12-20T14:17:37;91.03;;;37.50;;
9675;SDS011;4876;42.656;23.292;2023-12-20T14:23:04;90.85;;;35.60;;
9675;SDS011;4876;42.656;23.292;2023-12-20T14:25:30;94.65;;;38.22;;
9675;SDS011;4876;42.656;23.292;2023-12-20T14:27:56;95.45;;;38.67;;
9675;SDS011;4876;42.656;23.292;2023-12-20T14:30:22;98.60;;;39.17;;
9675;SDS011;4876;42.656;23.292;2023-12-20T14:32:47;103.90;;;39.83;;
9675;SDS011;4876;42.656;23.292;2023-12-20T14:35:13;96.65;;;41.63;;
9675;SDS011;4876;42.656;23.292;2023-12-20T14:37:39;99.30;;;41.10;;
9675;SDS011;4876;42.656;23.292;2023-12-20T14:40:09;107.80;;;43.60;;
9675;SDS011;4876;42.656;23.292;2023-12-20T14:42:40;100.50;;;42.78;;